Wednesday, January 17, 2018, 6:24 AM EST
Back to Local

KWWD, Wildwood, Cape May County Airport

Location: Villas, NJ, United States Lat: 39.017
Local Time: 6:24 AM EST (11:24 GMT) Lon: -74.917
Time Zone: US/Eastern Elev: 22 ft

Show me the last for .
Show Coded

Time T Td Feel RH Dir Speed Gust Alt SLP Vis Weather Sky Remarks
2018-01-17 06:01 34 34 26 100 310° 9 - 30.27 - 3 BR OVC004 None
2018-01-17 05:55 34 34 27 100 310° 9 - 30.27 30.27 2 BR OVC004 1-hr Precip Total: Trace
2018-01-17 05:39 34 34 27 100 310° 8 - 30.26 - 2 UP BR OVC002 1-hr Precip Total: Trace
2018-01-17 05:22 34 34 27 100 310° 8 - 30.26 - 3 -RA BR OVC002 1-hr Precip Total: Trace
2018-01-17 05:12 36 34 29 93 310° 8 - 30.26 - 1 -RA BR OVC002 1-hr Precip Total: Trace
2018-01-17 05:04 36 36 29 100 290° 8 - 30.26 - 2 UP BR OVC002 1-hr Precip Total: Trace
2018-01-17 04:55 36 36 32 100 330° 5 - 30.25 30.26 1 BR OVC002 1-hr Precip Total: Trace
2018-01-17 04:06 36 36 30 100 310° 7 - 30.26 - 1 -RA BR OVC002 1-hr Precip Total: Trace
2018-01-17 03:55 36 35 30 96 320° 8 - 30.26 30.27 2 -RA BR OVC002 1-hr Precip Total: Trace
6-hr Precip Total (4am): 0.00"
2018-01-17 03:49 36 36 29 100 320° 8 - 30.26 - 2 -RA BR OVC002 1-hr Precip Total: Trace
2018-01-17 03:34 36 36 30 100 320° 7 - 30.26 - 3 BR OVC002 1-hr Precip Total: Trace
2018-01-17 03:28 36 36 31 100 320° 6 - 30.26 - 2 BR OVC002 1-hr Precip Total: Trace
2018-01-17 03:20 36 36 30 100 320° 7 - 30.26 - 1 BR OVC002 1-hr Precip Total: Trace
2018-01-17 03:14 36 36 32 100 320° 5 - 30.26 - 1 BR OVC002 1-hr Precip Total: Trace
2018-01-17 02:55 36 35 30 96 320° 7 - 30.26 30.27 0 -RA BR OVC002 1-hr Precip Total: Trace
2018-01-17 02:46 36 36 31 100 320° 6 - 30.26 - 0 -RA FG OVC002 1-hr Precip Total: Trace
2018-01-17 02:38 36 36 30 100 320° 7 - 30.26 - 0 -RA BR OVC002 1-hr Precip Total: Trace
2018-01-17 01:55 38 38 34 100 280° 5 - 30.27 30.27 0 -RA FG OVC002 1-hr Precip Total: Trace
2018-01-17 01:19 41 39 39 93 70° 3 - 30.27 - 0 -RA FG OVC004 1-hr Precip Total: Trace
2018-01-17 00:55 41 40 39 95 80° 3 - 30.28 30.29 0 BR OVC004 1-hr Precip Total: Trace
6-hr Precip Total (1am): 0.00"
6-hr Min Temp (1am): 37.9°F
6-hr Max Temp (1am): 41.0°F
2018-01-17 00:48 41 39 38 93 40° 5 - 30.29 - 0 BR OVC004 1-hr Precip Total: Trace
2018-01-17 00:38 41 39 39 93 40° 3 - 30.29 - 0 -RA BR OVC002 1-hr Precip Total: Trace
2018-01-17 00:26 41 39 38 93 40° 5 - 30.29 - 0 -RA FG OVC002 1-hr Precip Total: Trace
2018-01-17 00:13 41 39 39 93 40° 3 - 30.29 - 0 -RA FG OVC002 1-hr Precip Total: Trace
2018-01-16 23:55 41 40 38 95 60° 5 - 30.30 30.30 0 -RA BR OVC002 1-hr Precip Total: Trace
24-hr Min Temp (12am): 26.1°F
24-hr Max Temp (12am): 45.0°F
2018-01-16 23:51 41 39 38 93 60° 5 - 30.30 - 1 -RA BR OVC002 1-hr Precip Total: Trace
24-hr Min Temp (12am): 26.1°F
24-hr Max Temp (12am): 45.0°F
2018-01-16 23:38 39 39 37 100 70° 3 - 30.30 - 1 BR OVC002 1-hr Precip Total: Trace
2018-01-16 23:25 39 39 37 100 80° 3 - 30.31 - 8 OVC002 1-hr Precip Total: Trace
2018-01-16 23:04 39 37 36 93 30° 5 - 30.31 - 10 OVC004 None
2018-01-16 22:43 39 37 36 93 10° 5 - 30.31 - 10 OVC006 None
2018-01-16 22:27 39 37 37 93 50° 3 - 30.32 - 10 BKN004 OVC023 None
2018-01-16 22:19 39 37 36 93 50° 5 - 30.32 - 10 SCT004 OVC023 None
2018-01-16 21:55 39 37 37 92 40° 3 - 30.33 30.34 10 OVC028 None
2018-01-16 21:24 39 36 36 86 60° 5 - 30.33 - 10 OVC028 None
2018-01-16 20:55 39 35 37 85 70° 3 - 30.34 30.35 10 SCT034 None
2018-01-16 19:55 39 34 35 81 70° 6 - 30.36 30.36 10 FEW026 SCT040 None
2018-01-16 19:36 39 34 34 80 70° 7 - 30.36 - 10 BKN026 BKN032 None
2018-01-16 19:28 39 34 34 80 70° 7 - 30.36 - 10 SCT026 BKN032 None
2018-01-16 19:16 39 34 34 80 70° 7 - 30.37 - 10 BKN026 BKN043 None
2018-01-16 18:55 39 34 34 81 70° 7 - 30.37 30.38 10 SCT028 BKN039 6-hr Min Temp (7pm): 39.0°F
6-hr Max Temp (7pm): 45.0°F
2018-01-16 17:55 40 34 34 79 80° 8 - 30.37 30.38 10 OVC042 None
2018-01-16 16:55 40 34 35 79 70° 7 - 30.37 30.37 10 FEW026 OVC038 None
2018-01-16 15:55 42 34 38 72 70° 7 - 30.38 30.39 10 OVC036 None
2018-01-16 14:55 43 34 37 70 80° 10 - 30.39 30.40 10 FEW028 None
2018-01-16 14:51 43 34 37 70 100° 9 - 30.39 - 10 SCT028 None
2018-01-16 14:20 45 34 40 65 90° 9 - 30.40 - 10 BKN028 None
2018-01-16 13:55 44 33 39 65 90° 10 - 30.41 30.41 10 CLR None
2018-01-16 12:55 45 34 38 65 90° 10 17 30.43 30.43 10 CLR 6-hr Min Temp (1pm): 27.0°F
6-hr Max Temp (1pm): 45.0°F
2018-01-16 11:55 43 34 38 70 80° 9 - 30.45 30.46 10 CLR None
2018-01-16 11:14 43 34 37 70 70° 10 - 30.46 - 10 SCT028 None
2018-01-16 10:55 42 33 37 70 80° 9 - 30.47 30.48 10 BKN028 None
2018-01-16 10:11 39 34 34 80 70° 8 - 30.49 - 10 SCT028 None
2018-01-16 09:55 40 35 33 82 80° 10 - 30.49 30.50 10 BKN028 None
2018-01-16 09:07 34 32 28 93 60° 7 - 30.49 - 10 BKN028 None
2018-01-16 08:55 33 30 28 88 60° 6 - 30.49 30.50 10 SCT030 None
2018-01-16 07:55 29 28 23 96 40° 6 - 30.50 30.50 10 CLR None
2018-01-16 06:55 27 25 22 92 70° 5 - 30.48 30.48 10 CLR 6-hr Min Temp (7am): 26.1°F
6-hr Max Temp (7am): 28.0°F

Support USWX by starting your Amazon purchase here.